Time;durP1;ratioP1;P1;durP2;ratioP2;P2;SDS_P1;SDS_P2;PMS_P1;PMS_P2;Temp;Humidity;BMP_temperature;BMP_pressure;BME280_temperature;BME280_humidity;BME280_pressure;Samples;Min_cycle;Max_cycle;Signal;HPM_P1;HPM_P2
2023/01/04 00:01:18;;;;;;;;;;;;;;;;;;5044581;28;19928;-82
2023/01/04 00:03:51;;;;;;;;;;;;;;;;;;5044259;28;19925;-82
2023/01/04 00:06:23;;;;;;;;;;;;;;;;;;5041796;28;20301;-81
2023/01/04 00:08:55;;;;;;;;;;;;;;;;;;5039468;28;20373;-81
2023/01/04 00:11:28;;;;;;;;;;;;;;;;;;5040878;28;20365;-81
2023/01/04 00:13:55;;;;;;;;;;;;;;;;;;5063227;28;19935;-82
2023/01/04 00:16:28;;;;;;;;;;;;;;;;;;5040590;28;19947;-82
2023/01/04 00:18:56;;;;;;;;;;;;;;;;;;5032230;28;19929;-82
2023/01/04 00:21:23;;;;;;;;;;;;;;;;;;5074002;28;19921;-82
2023/01/04 00:23:56;;;;;;;;;;;;;;;;;;5053378;28;19940;-82
2023/01/04 00:26:23;;;;;;;;;;;;;;;;;;5071234;28;19921;-82
2023/01/04 00:28:57;;;;;;;;;;;;;;;;;;5054699;28;20254;-82
2023/01/04 00:31:25;;;;;;;;;;;;;;;;;;5040338;28;19924;-82
2023/01/04 00:33:53;;;;;;;;;;;;;;;;;;5063310;28;19924;-81
2023/01/04 00:36:25;;;;;;;;;;;;;;;;;;5041689;28;19929;-81
2023/01/04 00:39:08;;;;;;;;;;;;;;;;;;5071341;28;20277;-82
2023/01/04 00:41:41;;;;;;;;;;;;;;;;;;5036817;28;19932;-82
2023/01/04 00:44:08;;;;;;;;;;;;;;;;;;5068893;28;20290;-83
2023/01/04 00:46:41;;;;;;;;;;;;;;;;;;5041182;28;20358;-82
2023/01/04 00:49:13;;;;;;;;;;;;;;;;;;5043856;28;19921;-81
2023/01/04 00:51:41;;;;;;;;;;;;;;;;;;5073316;28;19932;-81
2023/01/04 00:54:08;;;;;;;;;;;;;;;;;;5041865;28;19928;-82
2023/01/04 00:56:35;;;;;;;;;;;;;;;;;;5040490;28;19940;-82
2023/01/04 00:59:03;;;;;;;;;;;;;;;;;;5040470;28;20370;-82
2023/01/04 01:01:36;;;;;;;;;;;;;;;;;;5062857;28;19925;-82
2023/01/04 01:04:03;;;;;;;;;;;;;;;;;;5039099;28;19928;-81
2023/01/04 01:06:31;;;;;;;;;;;;;;;;;;5043872;28;19931;-81
2023/01/04 01:09:03;;;;;;;;;;;;;;;;;;5068793;28;20297;-82
2023/01/04 01:11:31;;;;;;;;;;;;;;;;;;5040496;28;19928;-82
2023/01/04 01:13:58;;;;;;;;;;;;;;;;;;5043561;28;19921;-83
2023/01/04 01:16:26;;;;;;;;;;;;;;;;;;5047304;28;19929;-82
2023/01/04 01:18:54;;;;;;;;;;;;;;;;;;5046462;28;19920;-82
2023/01/04 01:21:21;;;;;;;;;;;;;;;;;;5045508;28;20297;-81
2023/01/04 01:23:49;;;;;;;;;;;;;;;;;;5044206;28;20365;-82
2023/01/04 01:26:21;;;;;;;;;;;;;;;;;;5043499;28;20306;-82
2023/01/04 01:28:54;;;;;;;;;;;;;;;;;;5059544;28;20728;-82
2023/01/04 01:31:21;;;;;;;;;;;;;;;;;;5043398;28;20302;-82
2023/01/04 01:33:49;;;;;;;;;;;;;;;;;;5045733;28;19944;-82
2023/01/04 01:36:21;;;;;;;;;;;;;;;;;;5044243;28;20736;-82
2023/01/04 01:38:54;;;;;;;;;;;;;;;;;;5046845;28;19932;-82
2023/01/04 01:41:26;;;;;;;;;;;;;;;;;;5045049;28;19940;-82
2023/01/04 01:43:59;;;;;;;;;;;;;;;;;;5059955;28;19924;-82
2023/01/04 01:46:31;;;;;;;;;;;;;;;;;;5041589;28;20325;-82
2023/01/04 01:48:59;;;;;;;;;;;;;;;;;;5060107;28;19921;-82
2023/01/04 01:51:31;;;;;;;;;;;;;;;;;;5075775;28;19937;-81
2023/01/04 01:53:59;;;;;;;;;;;;;;;;;;5076607;28;20274;-82
2023/01/04 01:56:26;;;;;;;;;;;;;;;;;;5073117;28;19936;-82
2023/01/04 01:58:54;;;;;;;;;;;;;;;;;;5042585;28;19925;-82
2023/01/04 02:01:21;;;;;;;;;;;;;;;;;;5041234;28;19932;-82
2023/01/04 02:03:49;;;;;;;;;;;;;;;;;;5044825;28;19921;-82
2023/01/04 02:06:16;;;;;;;;;;;;;;;;;;5042261;28;19929;-82
2023/01/04 02:08:49;;;;;;;;;;;;;;;;;;5042738;28;19943;-83
2023/01/04 02:11:21;;;;;;;;;;;;;;;;;;5042710;28;19925;-82
2023/01/04 02:16:34;;;;;;;;;;;;;;;;;;5047164;28;19921;-82
2023/01/04 02:19:07;;;;;;;;;;;;;;;;;;5043103;28;19932;-82
2023/01/04 02:21:39;;;;;;;;;;;;;;;;;;5046692;28;19920;-82
2023/01/04 02:24:12;;;;;;;;;;;;;;;;;;5044899;28;19925;-82
2023/01/04 02:26:44;;;;;;;;;;;;;;;;;;5041207;28;20297;-82
2023/01/04 02:29:17;;;;;;;;;;;;;;;;;;5057095;28;19921;-81
2023/01/04 02:31:45;;;;;;;;;;;;;;;;;;5044822;28;19936;-82
2023/01/04 02:34:12;;;;;;;;;;;;;;;;;;5041731;28;19921;-82
2023/01/04 02:36:40;;;;;;;;;;;;;;;;;;5043763;28;19921;-81
2023/01/04 02:39:07;;;;;;;;;;;;;;;;;;5044648;28;19929;-82
2023/01/04 02:41:35;;;;;;;;;;;;;;;;;;5072142;28;19922;-81
2023/01/04 02:47:06;;;;;;;;;;;;;;;;;;5007795;28;19924;-82
2023/01/04 02:52:19;;;;;;;;;;;;;;;;;;5043222;28;19935;-82
2023/01/04 02:54:47;;;;;;;;;;;;;;;;;;5044438;28;19928;-83
2023/01/04 02:57:19;;;;;;;;;;;;;;;;;;5040066;28;19928;-82
2023/01/04 02:59:52;;;;;;;;;;;;;;;;;;5073973;28;19921;-81
2023/01/04 03:08:00;;;;;;;;;;;;;;;;;;5042448;28;20246;-82
2023/01/04 03:10:27;;;;;;;;;;;;;;;;;;5043696;28;20290;-82
2023/01/04 03:12:59;;;;;;;;;;;;;;;;;;5054851;28;20297;-81
2023/01/04 03:15:26;;;;;;;;;;;;;;;;;;5042048;28;19924;-82
2023/01/04 03:17:54;;;;;;;;;;;;;;;;;;5040214;28;19921;-82
2023/01/04 03:20:26;;;;;;;;;;;;;;;;;;5040671;28;19921;-82
2023/01/04 03:36:45;;;;;;;;;;;;;;;;;;5042617;28;19947;-82
2023/01/04 03:50:28;;;;;;;;;;;;;;;;;;5043908;28;19925;-82
2023/01/04 03:53:01;;;;;;;;;;;;;;;;;;5044563;28;20583;-82
2023/01/04 03:55:33;;;;;;;;;;;;;;;;;;5065385;28;20366;-82
2023/01/04 03:58:01;;;;;;;;;;;;;;;;;;5038328;28;20292;-81
2023/01/04 04:00:28;;;;;;;;;;;;;;;;;;5045228;28;19943;-81
2023/01/04 04:03:05;;;;;;;;;;;;;;;;;;5040762;28;19925;-82
2023/01/04 04:08:29;;;;;;;;;;;;;;;;;;5033476;28;19921;-82
2023/01/04 04:10:56;;;;;;;;;;;;;;;;;;5040043;28;19921;-81
2023/01/04 04:13:29;;;;;;;;;;;;;;;;;;5041967;28;19921;-82
2023/01/04 04:16:01;;;;;;;;;;;;;;;;;;5073803;28;19921;-82
2023/01/04 04:18:29;;;;;;;;;;;;;;;;;;5034618;28;19924;-82
2023/01/04 04:21:01;;;;;;;;;;;;;;;;;;5033295;28;19920;-82
2023/01/04 04:23:34;;;;;;;;;;;;;;;;;;5038423;28;19925;-82
2023/01/04 04:26:06;;;;;;;;;;;;;;;;;;5040116;28;19925;-82
2023/01/04 04:28:34;;;;;;;;;;;;;;;;;;5072486;28;20543;-82
2023/01/04 04:31:01;;;;;;;;;;;;;;;;;;5040322;28;20381;-82
2023/01/04 04:33:34;;;;;;;;;;;;;;;;;;5042339;28;20293;-81
2023/01/04 04:36:01;;;;;;;;;;;;;;;;;;5038047;28;19948;-82
2023/01/04 04:38:29;;;;;;;;;;;;;;;;;;5041321;28;19929;-81
2023/01/04 04:43:51;;;;;;;;;;;;;;;;;;5047066;28;19928;-81
2023/01/04 04:46:19;;;;;;;;;;;;;;;;;;5070284;28;20300;-81
2023/01/04 04:48:51;;;;;;;;;;;;;;;;;;5040248;28;19921;-81
2023/01/04 04:51:24;;;;;;;;;;;;;;;;;;5048679;28;19921;-81
2023/01/04 04:53:56;;;;;;;;;;;;;;;;;;5045838;28;19924;-81
2023/01/04 04:56:24;;;;;;;;;;;;;;;;;;5079706;28;19924;-81
2023/01/04 04:58:57;;;;;;;;;;;;;;;;;;5047350;28;19920;-81
2023/01/04 05:01:29;;;;;;;;;;;;;;;;;;5047057;28;19943;-81
2023/01/04 05:04:02;;;;;;;;;;;;;;;;;;5043235;28;19920;-81
2023/01/04 05:06:29;;;;;;;;;;;;;;;;;;5046382;28;19921;-81
2023/01/04 05:09:02;;;;;;;;;;;;;;;;;;5075962;28;19947;-81
2023/01/04 05:14:20;;;;;;;;;;;;;;;;;;5043073;28;19925;-81
2023/01/04 05:16:47;;;;;;;;;;;;;;;;;;5047906;28;20381;-80
2023/01/04 05:19:20;;;;;;;;;;;;;;;;;;5045331;28;19931;-81
2023/01/04 05:21:47;;;;;;;;;;;;;;;;;;5046972;28;19925;-81
2023/01/04 05:24:20;;;;;;;;;;;;;;;;;;5060699;28;19925;-82
2023/01/04 05:26:47;;;;;;;;;;;;;;;;;;5043799;28;19920;-81
2023/01/04 05:31:56;;;;;;;;;;;;;;;;;;5046984;28;19925;-81
2023/01/04 05:34:29;;;;;;;;;;;;;;;;;;5042053;28;19925;-81
2023/01/04 05:36:56;;;;;;;;;;;;;;;;;;5047487;28;19921;-81
2023/01/04 05:39:29;;;;;;;;;;;;;;;;;;5045439;28;19929;-81
2023/01/04 05:44:52;;;;;;;;;;;;;;;;;;5060592;28;19921;-82
2023/01/04 05:47:25;;;;;;;;;;;;;;;;;;5057274;28;19925;-82
2023/01/04 05:49:57;;;;;;;;;;;;;;;;;;5045749;28;19921;-81
2023/01/04 05:52:25;;;;;;;;;;;;;;;;;;5048895;28;20381;-81
2023/01/04 05:54:57;;;;;;;;;;;;;;;;;;5043555;28;19921;-81
2023/01/04 05:57:30;;;;;;;;;;;;;;;;;;5043628;28;19931;-81
2023/01/04 05:59:57;;;;;;;;;;;;;;;;;;5039872;28;19925;-82
2023/01/04 06:02:25;;;;;;;;;;;;;;;;;;5040317;28;19925;-82
2023/01/04 06:04:52;;;;;;;;;;;;;;;;;;5041472;28;19924;-83
2023/01/04 06:07:20;;;;;;;;;;;;;;;;;;5044222;28;20289;-81
2023/01/04 06:09:47;;;;;;;;;;;;;;;;;;5041874;28;20392;-82
2023/01/04 06:12:15;;;;;;;;;;;;;;;;;;5041355;28;20480;-80
2023/01/04 06:14:42;;;;;;;;;;;;;;;;;;5044032;28;19920;-82
2023/01/04 06:17:15;;;;;;;;;;;;;;;;;;5042979;28;20558;-81
2023/01/04 06:19:47;;;;;;;;;;;;;;;;;;5041867;28;20424;-80
2023/01/04 06:22:20;;;;;;;;;;;;;;;;;;5042929;28;19925;-81
2023/01/04 06:24:47;;;;;;;;;;;;;;;;;;5042769;28;19929;-81
2023/01/04 06:27:20;;;;;;;;;;;;;;;;;;5045323;28;19928;-81
2023/01/04 06:29:52;;;;;;;;;;;;;;;;;;5075394;28;19928;-81
2023/01/04 06:32:25;;;;;;;;;;;;;;;;;;5041734;28;19924;-81
2023/01/04 06:34:57;;;;;;;;;;;;;;;;;;5076853;28;19928;-81
2023/01/04 06:37:25;;;;;;;;;;;;;;;;;;5041197;28;19932;-81
2023/01/04 06:39:57;;;;;;;;;;;;;;;;;;5044945;28;20404;-81
2023/01/04 06:45:15;;;;;;;;;;;;;;;;;;5073895;28;19921;-81
2023/01/04 06:47:43;;;;;;;;;;;;;;;;;;5075087;28;19925;-81
2023/01/04 06:50:15;;;;;;;;;;;;;;;;;;5043913;28;19925;-81
2023/01/04 06:52:48;;;;;;;;;;;;;;;;;;5040764;28;19961;-81
2023/01/04 06:55:15;;;;;;;;;;;;;;;;;;5048248;28;19925;-83
2023/01/04 06:57:48;;;;;;;;;;;;;;;;;;5038100;28;19932;-81
2023/01/04 07:00:15;;;;;;;;;;;;;;;;;;5046326;28;20456;-82
2023/01/04 07:02:48;;;;;;;;;;;;;;;;;;5046564;28;19920;-80
2023/01/04 07:05:15;;;;;;;;;;;;;;;;;;5041189;28;19925;-81
2023/01/04 07:07:48;;;;;;;;;;;;;;;;;;5071476;28;19923;-81
2023/01/04 07:10:20;;;;;;;;;;;;;;;;;;5042801;28;19921;-82
2023/01/04 07:12:53;;;;;;;;;;;;;;;;;;5046534;28;19941;-82
2023/01/04 07:15:25;;;;;;;;;;;;;;;;;;5046182;28;20254;-81
2023/01/04 07:17:53;;;;;;;;;;;;;;;;;;5070158;28;19929;-81
2023/01/04 07:20:20;;;;;;;;;;;;;;;;;;5042742;28;19921;-84
2023/01/04 07:22:48;;;;;;;;;;;;;;;;;;5074975;28;19921;-81
2023/01/04 07:25:15;;;;;;;;;;;;;;;;;;5049705;28;19925;-86
2023/01/04 07:27:43;;;;;;;;;;;;;;;;;;5042259;28;19924;-83
2023/01/04 07:30:10;;;;;;;;;;;;;;;;;;5035985;28;19929;-82
2023/01/04 07:32:43;;;;;;;;;;;;;;;;;;5041278;28;19927;-82
2023/01/04 07:35:31;;;;;;;;;;;;;;;;;;5094929;27;19960;-81
2023/01/04 07:37:59;;;;;;;;;;;;;;;;;;5095998;28;20356;-81
2023/01/04 07:40:31;;;;;;;;;;;;;;;;;;5103464;28;19938;-81
2023/01/04 07:42:59;;;;;;;;;;;;;;;;;;5085688;28;19954;-82
2023/01/04 07:45:26;;;;;;;;;;;;;;;;;;5077233;28;19939;-81
2023/01/04 07:47:59;;;;;;;;;;;;;;;;;;5079831;28;19935;-81
2023/01/04 07:50:31;;;;;;;;;;;;;;;;;;5081960;28;19932;-80
2023/01/04 07:52:59;;;;;;;;;;;;;;;;;;5087148;28;19928;-81
2023/01/04 07:55:27;;;;;;;;;;;;;;;;;;5083580;28;19932;-82
2023/01/04 07:57:59;;;;;;;;;;;;;;;;;;5082508;28;19931;-81
2023/01/04 08:00:32;;;;;;;;;;;;;;;;;;5076896;28;21981;-81
2023/01/04 08:03:04;;;;;;;;;;;;;;;;;;5085424;28;19939;-81
2023/01/04 08:05:32;;;;;;;;;;;;;;;;;;5075557;28;19932;-81
2023/01/04 08:08:04;;;;;;;;;;;;;;;;;;5072537;28;19939;-81
2023/01/04 08:10:37;;;;;;;;;;;;;;;;;;5077759;28;19935;-81
2023/01/04 08:13:04;;;;;;;;;;;;;;;;;;5085637;28;19932;-80
2023/01/04 08:15:32;;;;;;;;;;;;;;;;;;5078900;28;20604;-82
2023/01/04 08:17:59;;;;;;;;;;;;;;;;;;5078502;28;19932;-80
2023/01/04 08:20:27;;;;;;;;;;;;;;;;;;5076851;28;19939;-82
2023/01/04 08:22:54;;;;;;;;;;;;;;;;;;5069001;28;20991;-80
2023/01/04 08:25:27;;;;;;;;;;;;;;;;;;5073490;28;20415;-82
2023/01/04 08:28:00;;;;;;;;;;;;;;;;;;5080766;28;20844;-83
2023/01/04 08:30:32;;;;;;;;;;;;;;;;;;5084428;28;19939;-80
2023/01/04 08:33:00;;;;;;;;;;;;;;;;;;5071972;28;19932;-81
2023/01/04 08:35:28;;;;;;;;;;;;;;;;;;5076485;28;19932;-79
2023/01/04 08:37:55;;;;;;;;;;;;;;;;;;5071667;28;19940;-81
2023/01/04 08:40:28;;;;;;;;;;;;;;;;;;5076626;28;20384;-81
2023/01/04 08:43:00;;;;;;;;;;;;;;;;;;5079930;28;19931;-82
2023/01/04 08:45:28;;;;;;;;;;;;;;;;;;5065555;28;19932;-81
2023/01/04 08:47:55;;;;;;;;;;;;;;;;;;5067372;28;19940;-81
2023/01/04 08:50:28;;;;;;;;;;;;;;;;;;5060776;28;19931;-81
2023/01/04 08:52:55;;;;;;;;;;;;;;;;;;5058352;28;20041;-80
2023/01/04 08:55:23;;;;;;;;;;;;;;;;;;5062017;28;20418;-82
2023/01/04 08:57:56;;;;;;;;;;;;;;;;;;5066195;28;19939;-80
2023/01/04 09:00:29;;;;;;;;;;;;;;;;;;5054443;28;19936;-83
2023/01/04 09:02:56;;;;;;;;;;;;;;;;;;5052331;28;19948;-82
2023/01/04 09:05:24;;;;;;;;;;;;;;;;;;5065474;28;20392;-82
2023/01/04 09:07:52;;;;;;;;;;;;;;;;;;5043367;28;19939;-81
2023/01/04 09:10:19;;;;;;;;;;;;;;;;;;5044101;28;22059;-80
2023/01/04 09:12:52;;;;;;;;;;;;;;;;;;5055893;28;20453;-79
2023/01/04 09:15:19;;;;;;;;;;;;;;;;;;5034689;28;20557;-81
2023/01/04 09:17:47;;;;;;;;;;;;;;;;;;5047776;28;20457;-81
2023/01/04 09:20:20;;;;;;;;;;;;;;;;;;5058010;28;19941;-82
2023/01/04 09:22:52;;;;;;;;;;;;;;;;;;5055772;28;19940;-81
2023/01/04 09:25:25;;;;;;;;;;;;;;;;;;5043703;28;19940;-80
2023/01/04 09:27:57;;;;;;;;;;;;;;;;;;5044516;28;19939;-81
2023/01/04 09:30:30;;;;;;;;;;;;;;;;;;5048535;28;19951;-79
2023/01/04 09:33:03;;;;;;;;;;;;;;;;;;5045583;28;19936;-80
2023/01/04 09:35:30;;;;;;;;;;;;;;;;;;5039030;28;19932;-81
2023/01/04 09:37:58;;;;;;;;;;;;;;;;;;5042699;28;19939;-80
2023/01/04 09:40:31;;;;;;;;;;;;;;;;;;5040862;28;19932;-81
2023/01/04 09:43:03;;;;;;;;;;;;;;;;;;5041824;28;20254;-81
2023/01/04 09:45:31;;;;;;;;;;;;;;;;;;5036650;28;19932;-80
2023/01/04 09:47:58;;;;;;;;;;;;;;;;;;5039819;28;19951;-81
2023/01/04 09:50:26;;;;;;;;;;;;;;;;;;5063151;28;19939;-81
2023/01/04 09:52:58;;;;;;;;;;;;;;;;;;5039074;28;19932;-80
2023/01/04 09:55:31;;;;;;;;;;;;;;;;;;5043372;28;19932;-82
2023/01/04 09:58:03;;;;;;;;;;;;;;;;;;5040621;28;20070;-82
2023/01/04 10:00:36;;;;;;;;;;;;;;;;;;5042202;28;20743;-80
2023/01/04 10:03:08;;;;;;;;;;;;;;;;;;5041859;28;19947;-80
2023/01/04 10:05:41;;;;;;;;;;;;;;;;;;5049722;28;19932;-80
2023/01/04 10:08:13;;;;;;;;;;;;;;;;;;5039061;28;20472;-80
2023/01/04 10:10:41;;;;;;;;;;;;;;;;;;5042485;28;20308;-80
2023/01/04 10:13:08;;;;;;;;;;;;;;;;;;5042040;28;20290;-81
2023/01/04 10:15:36;;;;;;;;;;;;;;;;;;5045568;28;19933;-81
2023/01/04 10:18:08;;;;;;;;;;;;;;;;;;5034756;28;19940;-80
2023/01/04 10:20:36;;;;;;;;;;;;;;;;;;5057224;28;20653;-81
2023/01/04 10:23:04;;;;;;;;;;;;;;;;;;5039484;28;19933;-79
2023/01/04 10:25:31;;;;;;;;;;;;;;;;;;5053423;28;20408;-80
2023/01/04 10:27:59;;;;;;;;;;;;;;;;;;5053724;28;20149;-82
2023/01/04 10:30:26;;;;;;;;;;;;;;;;;;5031790;28;19938;-80
2023/01/04 10:32:59;;;;;;;;;;;;;;;;;;5056926;28;19939;-80
2023/01/04 10:35:27;;;;;;;;;;;;;;;;;;5073323;27;19932;-81
2023/01/04 10:37:54;;;;;;;;;;;;;;;;;;5060383;28;19939;-80
2023/01/04 10:40:22;;;;;;;;;;;;;;;;;;5059802;28;19932;-81
2023/01/04 10:42:49;;;;;;;;;;;;;;;;;;5054145;28;20577;-80
2023/01/04 10:45:17;;;;;;;;;;;;;;;;;;5070394;28;19955;-80
2023/01/04 10:47:50;;;;;;;;;;;;;;;;;;5057210;28;19935;-80
2023/01/04 10:50:22;;;;;;;;;;;;;;;;;;5061710;28;19932;-80
2023/01/04 10:52:55;;;;;;;;;;;;;;;;;;5060339;28;19938;-80
2023/01/04 10:55:26;;;;;;;;;;;;;;;;;;5074387;27;19940;-80
2023/01/04 10:57:58;;;;;;;;;;;;;;;;;;5055923;28;20452;-80
2023/01/04 11:00:26;;;;;;;;;;;;;;;;;;5058193;28;19932;-80
2023/01/04 11:02:54;;;;;;;;;;;;;;;;;;5077206;28;19939;-83
2023/01/04 11:05:21;;;;;;;;;;;;;;;;;;5068176;28;19932;-81
2023/01/04 11:07:54;;;;;;;;;;;;;;;;;;5057519;28;20277;-83
2023/01/04 11:10:26;;;;;;;;;;;;;;;;;;5059461;28;20502;-81
2023/01/04 11:12:59;;;;;;;;;;;;;;;;;;5060074;28;20576;-81
2023/01/04 11:15:31;;;;;;;;;;;;;;;;;;5058578;28;19932;-82
2023/01/04 11:18:04;;;;;;;;;;;;;;;;;;5056023;28;19932;-82
2023/01/04 11:20:32;;;;;;;;;;;;;;;;;;5055981;28;19939;-82
2023/01/04 11:23:04;;;;;;;;;;;;;;;;;;5061658;28;19932;-82
2023/01/04 11:25:32;;;;;;;;;;;;;;;;;;5071200;28;19932;-82
2023/01/04 11:27:59;;;;;;;;;;;;;;;;;;5055659;28;21449;-82
2023/01/04 11:30:32;;;;;;;;;;;;;;;;;;5055307;28;19932;-81
2023/01/04 11:33:04;;;;;;;;;;;;;;;;;;5063460;28;20469;-82
2023/01/04 11:35:37;;;;;;;;;;;;;;;;;;5064632;28;19940;-83
2023/01/04 11:38:09;;;;;;;;;;;;;;;;;;5053692;28;19932;-82
2023/01/04 11:40:42;;;;;;;;;;;;;;;;;;5055567;28;19936;-83
2023/01/04 11:43:09;;;;;;;;;;;;;;;;;;5037069;28;19932;-83
2023/01/04 11:45:42;;;;;;;;;;;;;;;;;;5055274;28;19932;-82
2023/01/04 11:48:14;;;;;;;;;;;;;;;;;;5063171;28;19932;-82
2023/01/04 11:50:47;;;;;;;;;;;;;;;;;;5061759;28;19931;-81
2023/01/04 11:53:14;;;;;;;;;;;;;;;;;;5070637;28;19932;-82
2023/01/04 11:55:47;;;;;;;;;;;;;;;;;;5055974;28;19939;-82
2023/01/04 11:58:19;;;;;;;;;;;;;;;;;;5074921;28;19932;-82
2023/01/04 12:00:47;;;;;;;;;;;;;;;;;;5059168;28;19932;-82
2023/01/04 12:03:14;;;;;;;;;;;;;;;;;;5067112;28;19932;-82
2023/01/04 12:05:42;;;;;;;;;;;;;;;;;;5056610;28;20312;-83
2023/01/04 12:08:10;;;;;;;;;;;;;;;;;;5063666;28;19932;-81
2023/01/04 12:10:42;;;;;;;;;;;;;;;;;;5065357;28;19939;-81
2023/01/04 12:13:15;;;;;;;;;;;;;;;;;;5074677;28;19936;-82
2023/01/04 12:15:42;;;;;;;;;;;;;;;;;;5063045;28;19935;-81
2023/01/04 12:18:15;;;;;;;;;;;;;;;;;;5054789;28;19928;-82
2023/01/04 12:20:42;;;;;;;;;;;;;;;;;;5055859;28;19936;-80
2023/01/04 12:23:15;;;;;;;;;;;;;;;;;;5065476;28;19939;-82
2023/01/04 12:25:49;;;;;;;;;;;;;;;;;;5068221;28;20121;-81
2023/01/04 12:28:21;;;;;;;;;;;;;;;;;;5061662;28;20730;-82
2023/01/04 12:30:54;;;;;;;;;;;;;;;;;;5066201;28;19943;-82
2023/01/04 12:33:26;;;;;;;;;;;;;;;;;;5055323;28;21054;-83
2023/01/04 12:35:59;;;;;;;;;;;;;;;;;;5072979;28;22522;-82
2023/01/04 12:38:26;;;;;;;;;;;;;;;;;;5060181;28;19994;-81
2023/01/04 12:40:59;;;;;;;;;;;;;;;;;;5064027;28;20577;-80
2023/01/04 12:43:31;;;;;;;;;;;;;;;;;;5044989;28;19928;-82
2023/01/04 12:49:02;;;;;;;;;;;;;;;;;;5054570;28;19940;-82
2023/01/04 12:49:04;;;;;;;;;;;;;;;;;;5058588;28;19931;-82
2023/01/04 12:51:36;;;;;;;;;;;;;;;;;;5064616;28;20794;-81
2023/01/04 12:54:09;;;;;;;;;;;;;;;;;;5061622;28;19939;-82
2023/01/04 12:56:36;;;;;;;;;;;;;;;;;;5070523;28;20603;-81
2023/01/04 12:59:09;;;;;;;;;;;;;;;;;;5060927;28;19932;-80
2023/01/04 13:01:41;;;;;;;;;;;;;;;;;;5062546;28;20010;-82
2023/01/04 13:04:14;;;;;;;;;;;;;;;;;;5059031;28;19939;-81
2023/01/04 13:06:42;;;;;;;;;;;;;;;;;;5059488;28;19939;-81
2023/01/04 13:09:14;;;;;;;;;;;;;;;;;;5066685;28;20369;-82
2023/01/04 13:11:47;;;;;;;;;;;;;;;;;;5066540;28;19931;-80
2023/01/04 13:14:19;;;;;;;;;;;;;;;;;;5064419;28;19939;-81
2023/01/04 13:16:47;;;;;;;;;;;;;;;;;;5057280;28;19932;-81
2023/01/04 13:19:19;;;;;;;;;;;;;;;;;;5061597;28;19932;-82
2023/01/04 13:21:47;;;;;;;;;;;;;;;;;;5063512;28;19932;-83
2023/01/04 13:24:14;;;;;;;;;;;;;;;;;;5062494;28;20662;-81
2023/01/04 13:26:44;;;;;;;;;;;;;;;;;;5056851;28;19938;-82
2023/01/04 13:29:12;;;;;;;;;;;;;;;;;;5058766;28;19937;-82
2023/01/04 13:31:39;;;;;;;;;;;;;;;;;;5062060;28;19932;-81
2023/01/04 13:34:12;;;;;;;;;;;;;;;;;;5060474;28;20022;-81
2023/01/04 13:36:39;;;;;;;;;;;;;;;;;;5059946;28;19932;-81
2023/01/04 13:39:07;;;;;;;;;;;;;;;;;;5058917;28;19940;-81
2023/01/04 13:41:34;;;;;;;;;;;;;;;;;;5059220;28;19925;-81
2023/01/04 13:44:02;;;;;;;;;;;;;;;;;;5034548;28;19928;-82
2023/01/04 13:46:35;;;;;;;;;;;;;;;;;;5059432;28;19932;-80
2023/01/04 13:49:07;;;;;;;;;;;;;;;;;;5059859;28;20367;-81
2023/01/04 13:51:35;;;;;;;;;;;;;;;;;;5080600;27;19931;-82
2023/01/04 13:54:08;;;;;;;;;;;;;;;;;;5068101;28;21169;-81
2023/01/04 13:56:40;;;;;;;;;;;;;;;;;;5069149;28;19932;-82
2023/01/04 13:59:08;;;;;;;;;;;;;;;;;;5064454;28;19932;-81
2023/01/04 14:01:40;;;;;;;;;;;;;;;;;;5063353;28;19932;-83
2023/01/04 14:04:08;;;;;;;;;;;;;;;;;;5065355;28;19932;-82
2023/01/04 14:06:35;;;;;;;;;;;;;;;;;;5068240;28;19928;-82
2023/01/04 14:09:03;;;;;;;;;;;;;;;;;;5062843;28;19932;-82
2023/01/04 14:14:21;;;;;;;;;;;;;;;;;;5065940;28;19932;-82
2023/01/04 14:16:53;;;;;;;;;;;;;;;;;;5064933;28;19928;-83
2023/01/04 14:19:26;;;;;;;;;;;;;;;;;;5062254;28;20545;-82
2023/01/04 14:21:54;;;;;;;;;;;;;;;;;;5061683;28;19939;-81
2023/01/04 14:24:21;;;;;;;;;;;;;;;;;;5057817;28;20404;-82
2023/01/04 14:26:49;;;;;;;;;;;;;;;;;;5061258;28;19943;-82
2023/01/04 14:29:16;;;;;;;;;;;;;;;;;;5059188;28;20385;-82
2023/01/04 14:31:44;;;;;;;;;;;;;;;;;;5057380;28;20604;-84
2023/01/04 14:34:12;;;;;;;;;;;;;;;;;;5060428;28;19939;-84
2023/01/04 14:36:39;;;;;;;;;;;;;;;;;;5060915;28;19932;-81
2023/01/04 14:39:07;;;;;;;;;;;;;;;;;;5060421;28;19939;-82
2023/01/04 14:41:40;;;;;;;;;;;;;;;;;;5066665;28;19970;-81
2023/01/04 14:44:07;;;;;;;;;;;;;;;;;;5042061;28;19970;-81
2023/01/04 14:46:42;;;;;;;;;;;;;;;;;;5060956;28;19939;-82
2023/01/04 14:49:09;;;;;;;;;;;;;;;;;;5079892;28;19936;-81
2023/01/04 14:51:42;;;;;;;;;;;;;;;;;;5058239;28;19931;-82
2023/01/04 14:54:15;;;;;;;;;;;;;;;;;;5053265;28;19932;-81
2023/01/04 14:56:42;;;;;;;;;;;;;;;;;;5062940;28;19932;-81
2023/01/04 14:59:10;;;;;;;;;;;;;;;;;;5064994;28;19943;-81
2023/01/04 15:01:42;;;;;;;;;;;;;;;;;;5061801;28;20735;-81
2023/01/04 15:04:10;;;;;;;;;;;;;;;;;;5059248;28;19932;-82
2023/01/04 15:06:37;;;;;;;;;;;;;;;;;;5062894;28;19932;-81
2023/01/04 15:09:05;;;;;;;;;;;;;;;;;;5067227;28;19932;-82
2023/01/04 15:11:38;;;;;;;;;;;;;;;;;;5062305;28;19931;-82
2023/01/04 15:14:10;;;;;;;;;;;;;;;;;;5060845;28;19932;-82
2023/01/04 15:16:43;;;;;;;;;;;;;;;;;;5063669;28;19938;-82
2023/01/04 15:19:10;;;;;;;;;;;;;;;;;;5061545;28;20377;-82
2023/01/04 15:21:43;;;;;;;;;;;;;;;;;;5057186;28;20432;-81
2023/01/04 15:24:16;;;;;;;;;;;;;;;;;;5065459;28;19931;-81
2023/01/04 15:26:48;;;;;;;;;;;;;;;;;;5055143;28;19932;-81
2023/01/04 15:29:21;;;;;;;;;;;;;;;;;;5042791;28;19932;-82
2023/01/04 15:31:53;;;;;;;;;;;;;;;;;;5061721;28;19939;-81
2023/01/04 15:34:26;;;;;;;;;;;;;;;;;;5052574;28;19932;-81
2023/01/04 15:36:59;;;;;;;;;;;;;;;;;;5057776;28;19933;-81
2023/01/04 15:39:26;;;;;;;;;;;;;;;;;;5058943;28;19939;-80
2023/01/04 15:44:49;;;;;;;;;;;;;;;;;;5078176;28;19928;-80
2023/01/04 15:47:21;;;;;;;;;;;;;;;;;;5083599;28;20418;-80
2023/01/04 15:49:49;;;;;;;;;;;;;;;;;;5077597;28;20293;-80
2023/01/04 15:52:16;;;;;;;;;;;;;;;;;;5080042;28;19924;-80
2023/01/04 15:54:49;;;;;;;;;;;;;;;;;;5095438;28;19932;-80
2023/01/04 15:57:22;;;;;;;;;;;;;;;;;;5081192;28;19924;-80
2023/01/04 15:59:49;;;;;;;;;;;;;;;;;;5079790;28;19929;-81
2023/01/04 16:02:22;;;;;;;;;;;;;;;;;;5085433;28;19924;-80
2023/01/04 16:04:49;;;;;;;;;;;;;;;;;;5080882;28;19925;-80
2023/01/04 16:07:22;;;;;;;;;;;;;;;;;;5079537;28;19924;-80
2023/01/04 16:09:49;;;;;;;;;;;;;;;;;;5082409;28;19943;-80
2023/01/04 16:15:12;;;;;;;;;;;;;;;;;;5084104;28;20597;-80
2023/01/04 16:17:47;;;;;;;;;;;;;;;;;;5084182;28;19932;-80
2023/01/04 16:20:20;;;;;;;;;;;;;;;;;;5082458;28;19928;-80
2023/01/04 16:22:53;;;;;;;;;;;;;;;;;;5082695;28;20316;-80
2023/01/04 16:25:25;;;;;;;;;;;;;;;;;;5084037;28;19928;-80
2023/01/04 16:27:53;;;;;;;;;;;;;;;;;;5084464;28;20107;-80
2023/01/04 16:30:25;;;;;;;;;;;;;;;;;;5099746;28;19924;-80
2023/01/04 16:32:58;;;;;;;;;;;;;;;;;;5083548;28;19935;-80
2023/01/04 16:35:26;;;;;;;;;;;;;;;;;;5084730;28;19932;-80
2023/01/04 16:37:53;;;;;;;;;;;;;;;;;;5089746;28;19929;-80
2023/01/04 16:40:26;;;;;;;;;;;;;;;;;;5084611;28;20336;-80
2023/01/04 16:42:59;;;;;;;;;;;;;;;;;;5080033;28;20304;-80
2023/01/04 16:45:28;;;;;;;;;;;;;;;;;;5086370;28;20397;-80
2023/01/04 16:48:01;;;;;;;;;;;;;;;;;;5082819;28;19951;-80
2023/01/04 16:50:29;;;;;;;;;;;;;;;;;;5082136;28;19932;-81
2023/01/04 16:52:56;;;;;;;;;;;;;;;;;;5083458;28;20427;-80
2023/01/04 16:55:29;;;;;;;;;;;;;;;;;;5082052;28;19931;-81
2023/01/04 16:57:56;;;;;;;;;;;;;;;;;;5082773;28;19924;-81
2023/01/04 17:00:24;;;;;;;;;;;;;;;;;;5091984;28;20323;-81
2023/01/04 17:02:57;;;;;;;;;;;;;;;;;;5084681;28;20300;-81
2023/01/04 17:05:24;;;;;;;;;;;;;;;;;;5080192;28;19928;-81
2023/01/04 17:07:57;;;;;;;;;;;;;;;;;;5082779;28;19928;-80
2023/01/04 17:10:24;;;;;;;;;;;;;;;;;;5085380;28;19935;-80
2023/01/04 17:12:57;;;;;;;;;;;;;;;;;;5083075;28;19931;-80
2023/01/04 17:15:32;;;;;;;;;;;;;;;;;;5084737;28;19999;-81
2023/01/04 17:18:04;;;;;;;;;;;;;;;;;;5082899;28;19932;-81
2023/01/04 17:20:32;;;;;;;;;;;;;;;;;;5090412;28;20389;-81
2023/01/04 17:23:04;;;;;;;;;;;;;;;;;;5085128;28;19939;-80
2023/01/04 17:25:36;;;;;;;;;;;;;;;;;;5085577;28;19944;-81
2023/01/04 17:28:09;;;;;;;;;;;;;;;;;;5085320;28;19929;-81
2023/01/04 17:30:42;;;;;;;;;;;;;;;;;;5078835;28;19931;-83
2023/01/04 17:33:09;;;;;;;;;;;;;;;;;;5084809;28;19928;-81
2023/01/04 17:35:37;;;;;;;;;;;;;;;;;;5091231;28;19925;-81
2023/01/04 17:38:04;;;;;;;;;;;;;;;;;;5088405;28;19932;-80
2023/01/04 17:40:37;;;;;;;;;;;;;;;;;;5081103;28;19928;-81
2023/01/04 17:43:04;;;;;;;;;;;;;;;;;;5079551;28;19932;-81
2023/01/04 17:45:32;;;;;;;;;;;;;;;;;;5082033;28;19929;-81
2023/01/04 17:48:05;;;;;;;;;;;;;;;;;;5091425;28;19928;-83
2023/01/04 17:50:38;;;;;;;;;;;;;;;;;;5079981;28;19923;-82
2023/01/04 17:53:10;;;;;;;;;;;;;;;;;;5082092;28;20326;-81
2023/01/04 17:55:38;;;;;;;;;;;;;;;;;;5088182;28;19931;-81
2023/01/04 17:58:05;;;;;;;;;;;;;;;;;;5080934;28;19943;-80
2023/01/04 18:00:38;;;;;;;;;;;;;;;;;;5087130;28;20312;-82
2023/01/04 18:03:05;;;;;;;;;;;;;;;;;;5079345;28;19924;-81
2023/01/04 18:05:38;;;;;;;;;;;;;;;;;;5085999;28;19925;-81
2023/01/04 18:08:10;;;;;;;;;;;;;;;;;;5080861;28;19924;-81
2023/01/04 18:10:43;;;;;;;;;;;;;;;;;;5081315;28;19929;-80